Time;durP1;ratioP1;P1;durP2;ratioP2;P2;SDS_P1;SDS_P2;PMS_P1;PMS_P2;Temp;Humidity;BMP_temperature;BMP_pressure;BME280_temperature;BME280_humidity;BME280_pressure;Samples;Min_cycle;Max_cycle;Signal;HPM_P1;HPM_P2
2022/11/16 00:01:16;;;;;;;17.60;9.00;;;;;5.20;96971.60;;;;108814;1271;41624;-60
2022/11/16 00:03:45;;;;;;;15.80;8.60;;;;;5.20;96966.60;;;;108809;1271;41167;-60
2022/11/16 00:06:15;;;;;;;15.90;8.40;;;;;5.20;96964.60;;;;108820;1271;41372;-61
2022/11/16 00:09:20;;;;;;;16.60;8.50;;;;;5.24;96961.00;;;;108675;1271;41875;-60
2022/11/16 00:11:39;;;;;;;15.10;7.50;;;;;5.30;96958.60;;;;108682;1269;41152;-60
2022/11/16 00:14:09;;;;;;;15.50;8.60;;;;;5.30;96953.60;;;;108618;1271;41145;-60
2022/11/16 00:16:38;;;;;;;;;;;;;5.30;96950.20;;;;108621;1271;41484;-59
2022/11/16 00:19:09;;;;;;;15.60;7.70;;;;;5.30;96953.00;;;;108631;1271;41548;-61
2022/11/16 00:21:38;;;;;;;18.20;10.30;;;;;5.30;96955.40;;;;108597;1271;41920;-61
2022/11/16 00:24:13;;;;;;;21.00;10.60;;;;;5.26;96968.80;;;;108790;1271;41208;-61
2022/11/16 00:26:42;;;;;;;20.20;9.70;;;;;5.20;96963.00;;;;108733;1270;41192;-60
2022/11/16 00:29:20;;;;;;;15.20;9.00;;;;;5.20;96967.60;;;;108568;1271;41155;-60
2022/11/16 00:31:50;;;;;;;18.60;9.00;;;;;5.20;96952.00;;;;108534;1271;41195;-60
2022/11/16 00:34:22;;;;;;;16.60;9.50;;;;;5.20;96937.00;;;;108762;1271;41452;-60
2022/11/16 00:36:53;;;;;;;20.10;10.80;;;;;5.20;96933.40;;;;108839;1271;41233;-60
2022/11/16 00:39:24;;;;;;;17.10;9.50;;;;;5.20;96949.00;;;;108617;1270;41798;-61
2022/11/16 00:41:54;;;;;;;16.40;9.10;;;;;5.20;96947.40;;;;108530;1271;41634;-60
2022/11/16 00:44:24;;;;;;;22.80;11.50;;;;;5.20;96935.20;;;;108581;1272;41232;-60
2022/11/16 00:46:54;;;;;;;18.30;9.50;;;;;5.20;96936.40;;;;108600;1271;41637;-60
2022/11/16 00:49:24;;;;;;;15.70;8.50;;;;;5.20;96938.60;;;;108639;1271;41144;-61
2022/11/16 00:51:55;;;;;;;15.10;8.90;;;;;5.20;96936.20;;;;108817;1271;41152;-60
2022/11/16 00:54:24;;;;;;;20.10;10.00;;;;;5.20;96931.80;;;;108914;1271;41236;-61
2022/11/16 00:56:54;;;;;;;16.40;8.10;;;;;5.16;96932.40;;;;108811;1271;41191;-61
2022/11/16 00:59:24;;;;;;;17.60;9.60;;;;;5.10;96934.60;;;;108794;1272;41242;-60
2022/11/16 01:01:58;;;;;;;23.70;12.80;;;;;5.10;96941.20;;;;108729;1269;41937;-61
2022/11/16 01:04:29;;;;;;;16.10;8.80;;;;;5.00;96934.80;;;;108541;1271;41355;-61
2022/11/16 01:07:00;;;;;;;17.60;9.00;;;;;4.96;96911.20;;;;108520;1271;41247;-61
2022/11/16 01:09:29;;;;;;;15.40;8.70;;;;;4.90;96903.00;;;;108560;1271;41693;-59
2022/11/16 01:12:09;;;;;;;;;;;;;4.92;96909.60;;;;108686;1271;42358;-60
2022/11/16 01:14:41;;;;;;;20.40;10.30;;;;;4.90;96917.00;;;;108819;1275;41151;-60
2022/11/16 01:17:13;;;;;;;18.60;10.40;;;;;4.88;96901.80;;;;108784;1270;41511;-60
2022/11/16 01:19:43;;;;;;;19.20;8.70;;;;;4.80;96899.40;;;;108779;1272;41186;-61
2022/11/16 01:22:13;;;;;;;15.30;8.50;;;;;4.82;96895.60;;;;108787;1272;41153;-60
2022/11/16 01:24:45;;;;;;;15.80;8.70;;;;;4.90;96894.40;;;;108835;1271;41169;-60
2022/11/16 01:27:15;;;;;;;18.90;8.40;;;;;4.90;96904.20;;;;108791;1272;41144;-61
2022/11/16 01:29:48;;;;;;;15.10;8.00;;;;;4.90;96902.20;;;;108818;1275;41144;-60
2022/11/16 01:32:20;;;;;;;16.10;9.30;;;;;4.90;96901.20;;;;108754;1271;42072;-61
2022/11/16 01:34:50;;;;;;;16.60;8.70;;;;;4.90;96894.00;;;;108758;1274;41618;-61
2022/11/16 01:37:28;;;;;;;18.50;8.80;;;;;4.90;96892.00;;;;108787;1271;41144;-60
2022/11/16 01:39:58;;;;;;;;;;;;;4.92;96883.00;;;;108631;1273;41279;-61
2022/11/16 01:42:29;;;;;;;16.00;7.50;;;;;4.96;96888.40;;;;108573;1275;41170;-60
2022/11/16 01:45:30;;;;;;;22.60;12.20;;;;;5.00;96883.00;;;;108655;1275;41271;-60
2022/11/16 01:48:00;;;;;;;16.60;9.20;;;;;4.90;96879.20;;;;108750;1270;41243;-60
2022/11/16 01:50:34;;;;;;;15.80;7.90;;;;;4.90;96878.80;;;;108802;1274;41144;-61
2022/11/16 01:53:05;;;;;;;15.80;7.90;;;;;4.90;96877.60;;;;108761;1275;41137;-60
2022/11/16 01:55:50;;;;;;;14.90;8.00;;;;;4.90;96878.80;;;;108574;1262;41619;-61
2022/11/16 01:58:35;;;;;;;15.90;7.80;;;;;5.00;96877.60;;;;108736;1271;41337;-60
2022/11/16 02:01:17;;;;;;;14.80;7.80;;;;;5.00;96873.60;;;;108769;1261;41246;-61
2022/11/16 02:03:50;;;;;;;15.60;8.30;;;;;5.00;96873.80;;;;108784;1273;41925;-60
2022/11/16 02:06:26;;;;;;;;;;;;;5.00;96875.60;;;;108647;1275;41747;-61
2022/11/16 02:12:33;;;;;;;15.70;8.50;;;;;5.00;96865.80;;;;108746;1273;41176;-60
2022/11/16 02:15:06;;;;;;;17.30;9.00;;;;;4.94;96865.40;;;;108787;1275;41162;-61
2022/11/16 02:17:44;;;;;;;16.10;8.70;;;;;4.90;96852.40;;;;108586;1272;41191;-60
2022/11/16 02:20:51;;;;;;;14.60;8.10;;;;;4.90;96846.40;;;;108650;1275;41163;-60
2022/11/16 02:23:44;;;;;;;18.20;8.10;;;;;4.90;96848.20;;;;108722;1272;41186;-60
2022/11/16 02:26:28;;;;;;;16.50;8.90;;;;;4.90;96841.20;;;;108777;1273;41157;-60
2022/11/16 02:29:18;;;;;;;18.10;9.00;;;;;4.86;96834.80;;;;108705;1275;41220;-61
2022/11/16 02:31:59;;;;;;;16.10;7.60;;;;;4.80;96821.60;;;;108705;1275;41519;-60
2022/11/16 02:34:35;;;;;;;18.50;9.00;;;;;4.80;96810.00;;;;108789;1271;41238;-60
2022/11/16 02:37:09;;;;;;;15.30;7.80;;;;;4.72;96807.00;;;;108784;1275;41357;-60
2022/11/16 02:39:41;;;;;;;16.30;8.30;;;;;4.70;96807.60;;;;108786;1275;41201;-60
2022/11/16 02:42:18;;;;;;;14.10;7.90;;;;;4.70;96804.00;;;;108695;1271;41163;-60
2022/11/16 02:44:51;;;;;;;15.30;8.00;;;;;4.70;96800.80;;;;108753;1271;41152;-60
2022/11/16 02:47:25;;;;;;;16.20;8.10;;;;;4.70;96799.60;;;;108714;1275;41663;-61
2022/11/16 02:50:08;;;;;;;14.90;7.80;;;;;4.70;96793.40;;;;108582;1275;41936;-61
2022/11/16 02:52:38;;;;;;;17.80;8.50;;;;;4.64;96789.60;;;;108578;1275;41234;-60
2022/11/16 02:55:11;;;;;;;15.80;8.70;;;;;4.60;96797.60;;;;108750;1271;41616;-60
2022/11/16 02:57:58;;;;;;;16.30;7.80;;;;;4.60;96790.00;;;;108720;1275;41248;-60
2022/11/16 03:00:42;;;;;;;14.90;7.80;;;;;4.60;96784.20;;;;108840;1274;41309;-60
2022/11/16 03:03:37;;;;;;;14.60;7.90;;;;;4.60;96782.80;;;;108796;1274;41251;-60
2022/11/16 03:06:15;;;;;;;14.40;7.50;;;;;4.60;96791.60;;;;108805;1271;41147;-60
2022/11/16 03:08:57;;;;;;;13.90;7.60;;;;;4.60;96781.60;;;;108733;1271;41311;-60
2022/11/16 03:14:18;;;;;;;22.30;12.50;;;;;4.58;96800.60;;;;108755;1275;41413;-60
2022/11/16 03:16:53;;;;;;;17.30;8.60;;;;;4.50;96810.00;;;;108801;1267;41692;-60
2022/11/16 03:19:31;;;;;;;15.50;7.80;;;;;4.40;96806.60;;;;108770;1271;41179;-60
2022/11/16 03:22:04;;;;;;;16.70;8.20;;;;;4.40;96798.20;;;;108807;1275;41633;-60
2022/11/16 03:24:36;;;;;;;15.10;7.70;;;;;4.40;96788.80;;;;108743;1274;41430;-60
2022/11/16 03:27:36;;;;;;;22.30;8.10;;;;;4.40;96796.40;;;;108746;1275;41149;-60
2022/11/16 03:30:22;;;;;;;15.20;8.30;;;;;4.48;96796.20;;;;108767;1275;41239;-60
2022/11/16 03:33:06;;;;;;;16.00;7.50;;;;;4.50;96781.40;;;;108779;1272;41150;-61
2022/11/16 03:35:54;;;;;;;19.40;8.10;;;;;4.50;96779.20;;;;108702;1273;41495;-61
2022/11/16 03:38:25;;;;;;;15.40;7.80;;;;;4.50;96770.60;;;;108756;1272;41134;-61
2022/11/16 03:41:06;;;;;;;16.30;8.30;;;;;4.50;96761.80;;;;108711;1275;41246;-60
2022/11/16 03:43:36;;;;;;;14.20;7.50;;;;;4.50;96752.20;;;;108808;1271;41968;-61
2022/11/16 03:46:08;;;;;;;21.50;8.80;;;;;4.50;96750.00;;;;108698;1275;42479;-60
2022/11/16 03:48:38;;;;;;;15.70;7.30;;;;;4.50;96750.00;;;;108773;1275;41245;-62
2022/11/16 03:51:24;;;;;;;24.70;7.90;;;;;4.48;96757.00;;;;108622;1267;41151;-62
2022/11/16 03:53:54;;;;;;;16.70;8.50;;;;;4.40;96756.40;;;;108696;1275;41137;-61
2022/11/16 03:56:23;;;;;;;27.60;7.90;;;;;4.36;96759.00;;;;108866;1267;41140;-62
2022/11/16 03:58:54;;;;;;;26.70;9.00;;;;;4.30;96751.20;;;;108630;1273;41369;-60
2022/11/16 04:01:24;;;;;;;14.90;8.10;;;;;4.30;96747.40;;;;108621;1273;41619;-60
2022/11/16 04:03:54;;;;;;;30.00;7.40;;;;;4.30;96745.00;;;;108632;1272;41143;-60
2022/11/16 04:26:06;;;;;;;16.00;8.90;;;;;4.40;96739.00;;;;108909;1272;41785;-61
2022/11/16 04:28:36;;;;;;;14.00;7.00;;;;;4.30;96737.60;;;;108760;1272;41231;-61
2022/11/16 04:39:38;;;;;;;16.90;7.10;;;;;4.22;96691.00;;;;108853;1271;41943;-61
2022/11/16 04:42:16;;;;;;;16.00;7.90;;;;;4.24;96691.80;;;;108859;1271;41214;-61
2022/11/16 04:47:39;;;;;;;15.00;7.80;;;;;4.30;96686.40;;;;108991;1272;41616;-61
2022/11/16 04:50:08;;;;;;;15.00;8.40;;;;;4.30;96673.00;;;;108855;1271;41145;-61
2022/11/16 04:52:39;;;;;;;19.60;10.30;;;;;4.30;96661.00;;;;108746;1271;42503;-60
2022/11/16 04:55:10;;;;;;;15.70;8.80;;;;;4.30;96665.20;;;;108839;1272;41846;-60
2022/11/16 04:57:39;;;;;;;18.00;8.60;;;;;4.30;96667.60;;;;108665;1271;41222;-60
2022/11/16 05:00:10;;;;;;;19.80;9.70;;;;;4.30;96676.20;;;;108724;1271;41464;-60
2022/11/16 05:02:39;;;;;;;16.60;8.00;;;;;4.30;96678.20;;;;108754;1271;42868;-60
2022/11/16 05:05:09;;;;;;;18.10;9.40;;;;;4.30;96683.80;;;;108709;1272;41707;-61
2022/11/16 05:07:39;;;;;;;22.20;11.30;;;;;4.30;96692.40;;;;108717;1271;41242;-61
2022/11/16 05:10:13;;;;;;;25.30;8.30;;;;;4.20;96685.80;;;;108599;1271;41620;-60
2022/11/16 05:12:43;;;;;;;14.20;7.40;;;;;4.10;96681.80;;;;108482;1268;41243;-60
2022/11/16 05:15:12;;;;;;;14.80;7.30;;;;;4.10;96672.20;;;;108724;1271;41152;-61
2022/11/16 05:17:42;;;;;;;15.50;7.60;;;;;4.16;96671.60;;;;108762;1272;41915;-60
2022/11/16 05:23:04;;;;;;;15.90;8.40;;;;;4.20;96670.00;;;;108705;1267;41141;-60
2022/11/16 05:25:35;;;;;;;13.90;8.10;;;;;4.20;96655.40;;;;108630;1271;41700;-60
2022/11/16 05:28:07;;;;;;;14.30;7.30;;;;;4.20;96657.20;;;;108558;1271;41163;-60
2022/11/16 05:30:40;;;;;;;13.40;7.20;;;;;4.20;96653.60;;;;108526;1271;41617;-60
2022/11/16 05:33:10;;;;;;;17.50;9.40;;;;;4.30;96654.80;;;;108512;1271;41396;-60
2022/11/16 05:35:40;;;;;;;;;;;;;4.30;96651.40;;;;108592;1271;41704;-60
2022/11/16 05:38:11;;;;;;;21.80;11.40;;;;;4.20;96647.60;;;;108495;1271;41600;-60
2022/11/16 05:40:42;;;;;;;19.80;10.00;;;;;4.20;96650.20;;;;108528;1270;41236;-60
2022/11/16 05:43:11;;;;;;;21.50;11.00;;;;;4.16;96654.00;;;;108613;1271;41451;-60
2022/11/16 05:45:46;;;;;;;20.40;10.50;;;;;4.18;96660.20;;;;108786;1271;41887;-60
2022/11/16 05:48:16;;;;;;;24.10;10.80;;;;;4.20;96653.80;;;;108753;1271;41880;-60
2022/11/16 05:50:45;;;;;;;22.20;12.30;;;;;4.20;96646.60;;;;108755;1271;42375;-60
2022/11/16 05:53:21;;;;;;;18.20;9.90;;;;;4.20;96647.40;;;;108793;1271;41212;-60
2022/11/16 05:55:49;;;;;;;20.00;9.80;;;;;4.30;96653.40;;;;108755;1268;41151;-60
2022/11/16 05:58:19;;;;;;;28.00;13.60;;;;;4.30;96664.40;;;;108751;1271;41575;-60
2022/11/16 06:00:49;;;;;;;28.70;14.30;;;;;4.22;96666.20;;;;108798;1271;41144;-61
2022/11/16 06:03:19;;;;;;;20.40;10.60;;;;;4.20;96654.80;;;;108719;1271;41268;-60
2022/11/16 06:05:52;;;;;;;19.50;9.70;;;;;4.20;96642.00;;;;108658;1271;41704;-61
2022/11/16 06:08:20;;;;;;;20.20;10.20;;;;;4.30;96649.00;;;;108702;1271;41696;-61
2022/11/16 06:10:51;;;;;;;17.20;9.00;;;;;4.32;96652.40;;;;108794;1271;41316;-61
2022/11/16 06:13:20;;;;;;;18.00;9.00;;;;;4.40;96640.60;;;;108775;1270;41176;-62
2022/11/16 06:15:50;;;;;;;19.50;9.40;;;;;4.50;96635.80;;;;108734;1271;41467;-61
2022/11/16 06:18:19;;;;;;;20.50;10.40;;;;;4.60;96638.80;;;;108528;1271;41596;-60
2022/11/16 06:20:49;;;;;;;16.80;9.30;;;;;4.70;96634.00;;;;108672;1271;41607;-61
2022/11/16 06:23:18;;;;;;;20.40;10.10;;;;;4.78;96630.00;;;;108746;1271;42121;-61
2022/11/16 06:25:52;;;;;;;19.30;10.30;;;;;4.80;96632.80;;;;108807;1270;41236;-61
2022/11/16 06:28:22;;;;;;;15.10;8.70;;;;;4.90;96647.20;;;;108766;1271;41271;-60
2022/11/16 06:30:51;;;;;;;16.70;9.10;;;;;4.90;96648.00;;;;108787;1271;41384;-60
2022/11/16 06:33:21;;;;;;;16.90;9.60;;;;;4.90;96654.60;;;;108792;1271;41263;-61
2022/11/16 06:35:50;;;;;;;22.80;11.70;;;;;4.90;96648.40;;;;108720;1271;41623;-60
2022/11/16 06:38:22;;;;;;;28.50;15.50;;;;;4.90;96651.60;;;;108767;1271;41165;-61
2022/11/16 06:40:53;;;;;;;27.00;15.60;;;;;4.90;96663.60;;;;108769;1271;41145;-60
2022/11/16 06:43:24;;;;;;;30.80;18.20;;;;;4.80;96673.20;;;;108598;1269;41527;-60
2022/11/16 06:45:56;;;;;;;25.50;14.20;;;;;4.70;96681.40;;;;108701;1271;41601;-63
2022/11/16 06:48:25;;;;;;;28.50;14.40;;;;;4.60;96681.80;;;;108749;1271;42520;-62
2022/11/16 06:50:57;;;;;;;18.50;9.60;;;;;4.60;96687.20;;;;108752;1271;41501;-61
2022/11/16 06:53:26;;;;;;;19.80;10.10;;;;;4.62;96689.00;;;;108631;1270;41410;-61
2022/11/16 06:56:05;;;;;;;17.60;9.30;;;;;4.68;96697.80;;;;108679;1266;41631;-61
2022/11/16 06:58:38;;;;;;;18.70;9.20;;;;;4.70;96684.20;;;;108710;1271;41243;-61
2022/11/16 07:01:11;;;;;;;30.50;14.40;;;;;4.70;96677.40;;;;108764;1271;41931;-60
2022/11/16 07:03:41;;;;;;;23.60;13.50;;;;;4.70;96666.20;;;;108758;1271;42476;-60
2022/11/16 07:06:11;;;;;;;22.70;12.20;;;;;4.70;96666.20;;;;108738;1271;41148;-60
2022/11/16 07:08:43;;;;;;;25.00;13.50;;;;;4.70;96658.00;;;;108772;1271;41175;-61
2022/11/16 07:11:12;;;;;;;18.80;10.50;;;;;4.70;96647.40;;;;108627;1271;41497;-60
2022/11/16 07:13:43;;;;;;;20.70;11.50;;;;;4.70;96642.60;;;;108478;1271;421586;-60
2022/11/16 07:16:14;;;;;;;22.30;12.50;;;;;4.70;96639.40;;;;108703;1270;41282;-60
2022/11/16 07:18:48;;;;;;;24.70;13.70;;;;;4.70;96633.80;;;;108818;1271;41306;-60
2022/11/16 07:21:18;;;;;;;19.90;11.00;;;;;4.76;96609.80;;;;108774;1271;41147;-61
2022/11/16 07:23:47;;;;;;;23.30;13.30;;;;;4.80;96597.40;;;;108778;1271;41150;-61
2022/11/16 07:26:19;;;;;;;27.90;14.40;;;;;4.80;96591.00;;;;108711;1271;41619;-61
2022/11/16 07:28:59;;;;;;;27.20;14.80;;;;;4.82;96593.40;;;;108737;1271;41142;-61
2022/11/16 07:31:27;;;;;;;23.70;11.90;;;;;4.90;96604.80;;;;108698;1269;42062;-60
2022/11/16 07:34:14;;;;;;;21.40;12.40;;;;;4.90;96608.20;;;;108755;1271;42105;-61
2022/11/16 07:36:50;;;;;;;21.60;11.60;;;;;4.90;96600.00;;;;108784;1271;41249;-61
2022/11/16 07:39:20;;;;;;;23.20;13.10;;;;;4.90;96582.80;;;;108780;1271;41575;-61
2022/11/16 07:41:53;;;;;;;20.90;12.40;;;;;4.96;96579.40;;;;108761;1267;41160;-61
2022/11/16 07:44:27;;;;;;;17.50;10.70;;;;;5.00;96579.00;;;;108692;1262;41164;-61
2022/11/16 07:47:05;;;;;;;18.30;9.90;;;;;5.00;96579.60;;;;108784;1263;41147;-61
2022/11/16 07:49:35;;;;;;;20.00;11.00;;;;;5.04;96580.00;;;;108781;1270;41628;-61
2022/11/16 07:52:14;;;;;;;23.20;12.00;;;;;5.10;96583.40;;;;108779;1266;42052;-61
2022/11/16 07:54:50;;;;;;;21.00;11.40;;;;;5.20;96591.00;;;;108762;1271;41134;-61
2022/11/16 07:57:20;;;;;;;20.00;11.00;;;;;5.20;96595.00;;;;108638;1271;41232;-61
2022/11/16 07:59:49;;;;;;;20.70;10.20;;;;;5.30;96593.40;;;;108773;1269;41296;-61
2022/11/16 08:02:17;;;;;;;18.50;11.10;;;;;5.30;96593.60;;;;108767;1271;41250;-61
2022/11/16 08:04:47;;;;;;;17.90;10.00;;;;;5.30;96593.80;;;;108738;1272;42010;-61
2022/11/16 08:07:16;;;;;;;19.20;10.30;;;;;5.40;96590.80;;;;108782;1271;41509;-61
2022/11/16 08:09:50;;;;;;;22.20;10.10;;;;;5.44;96586.40;;;;108788;1270;42078;-61
2022/11/16 08:12:20;;;;;;;18.10;9.70;;;;;5.50;96581.40;;;;108815;1271;41554;-61
2022/11/16 08:14:49;;;;;;;19.00;10.30;;;;;5.60;96580.20;;;;108891;1270;41239;-61
2022/11/16 08:17:18;;;;;;;17.20;9.60;;;;;5.70;96584.40;;;;108903;1263;41951;-61
2022/11/16 08:19:48;;;;;;;16.60;9.00;;;;;5.80;96579.00;;;;108873;1270;41713;-61
2022/11/16 08:22:17;;;;;;;17.20;9.10;;;;;5.86;96583.80;;;;108617;1271;41169;-61
2022/11/16 08:24:46;;;;;;;13.10;7.30;;;;;5.94;96592.20;;;;108698;1271;41158;-61
2022/11/16 08:27:16;;;;;;;20.00;11.20;;;;;6.00;96598.40;;;;108911;1266;41236;-61
2022/11/16 08:29:47;;;;;;;22.30;12.10;;;;;6.10;96604.60;;;;108823;1271;42066;-61
2022/11/16 08:32:16;;;;;;;19.10;11.20;;;;;6.10;96606.20;;;;108905;1270;41156;-61
2022/11/16 08:34:45;;;;;;;18.20;9.90;;;;;6.10;96595.00;;;;108888;1270;42614;-61
2022/11/16 08:37:13;;;;;;;17.30;10.10;;;;;6.10;96594.60;;;;108777;1269;41581;-61
2022/11/16 08:39:44;;;;;;;17.80;10.00;;;;;6.12;96601.20;;;;108591;1258;41157;-61
2022/11/16 08:42:13;;;;;;;15.40;8.30;;;;;6.18;96599.80;;;;108642;1269;42127;-60
2022/11/16 08:44:45;;;;;;;21.60;11.50;;;;;6.20;96606.00;;;;108620;1262;41300;-61
2022/11/16 08:47:15;;;;;;;19.40;10.90;;;;;6.20;96599.60;;;;108675;1264;41240;-61
2022/11/16 08:49:58;;;;;;;18.00;10.50;;;;;6.20;96596.00;;;;108783;1263;41400;-61
2022/11/16 08:52:30;;;;;;;21.60;11.50;;;;;6.12;96586.60;;;;108836;1270;42039;-60
2022/11/16 08:54:59;;;;;;;20.40;11.50;;;;;6.10;96578.40;;;;108987;1258;41401;-61
2022/11/16 08:57:28;;;;;;;19.30;11.10;;;;;6.10;96583.40;;;;108830;1259;41792;-60
2022/11/16 09:00:00;;;;;;;16.80;9.60;;;;;6.10;96570.80;;;;108886;1269;41263;-60
2022/11/16 09:02:28;;;;;;;17.10;9.10;;;;;6.18;96561.80;;;;108857;1262;41785;-61
2022/11/16 09:04:57;;;;;;;16.40;8.80;;;;;6.28;96561.20;;;;108711;1262;41419;-61
2022/11/16 09:07:26;;;;;;;17.80;9.90;;;;;6.40;96561.20;;;;108768;1270;41243;-61
2022/11/16 09:09:55;;;;;;;14.50;8.70;;;;;6.46;96558.00;;;;108613;1270;41150;-61
2022/11/16 09:12:24;;;;;;;17.90;10.40;;;;;6.60;96550.40;;;;108626;1259;41249;-61
2022/11/16 09:14:52;;;;;;;19.50;10.70;;;;;6.70;96540.20;;;;108575;1261;41146;-60
2022/11/16 09:17:21;;;;;;;23.50;11.90;;;;;6.90;96540.80;;;;108693;1271;41349;-60
2022/11/16 09:19:50;;;;;;;19.70;11.50;;;;;7.00;96542.40;;;;108933;1271;41407;-61
2022/11/16 09:22:19;;;;;;;18.10;10.20;;;;;7.12;96543.80;;;;108678;1271;41622;-60
2022/11/16 09:24:48;;;;;;;16.20;9.70;;;;;7.20;96548.60;;;;108699;1270;41616;-62
2022/11/16 09:27:17;;;;;;;17.70;9.80;;;;;7.32;96549.00;;;;108652;1271;41890;-60
2022/11/16 09:29:46;;;;;;;16.60;9.10;;;;;7.42;96549.20;;;;108528;1270;41523;-60
2022/11/16 09:32:15;;;;;;;16.30;9.20;;;;;7.60;96547.40;;;;108543;1271;41659;-60
2022/11/16 09:34:43;;;;;;;17.20;9.00;;;;;7.66;96547.60;;;;108632;1271;41631;-60
2022/11/16 09:37:12;;;;;;;19.20;9.80;;;;;7.76;96544.60;;;;108559;1271;43038;-60
2022/11/16 09:39:41;;;;;;;17.00;9.50;;;;;7.80;96529.00;;;;108579;1271;41154;-60
2022/11/16 09:42:30;;;;;;;15.40;8.70;;;;;7.90;96523.60;;;;108577;1271;41230;-61
2022/11/16 09:45:07;;;;;;;18.40;9.90;;;;;7.90;96520.20;;;;108569;1271;41737;-62
2022/11/16 09:47:48;;;;;;;18.40;10.30;;;;;7.90;96520.40;;;;108771;1271;41148;-61
2022/11/16 09:50:42;;;;;;;14.50;8.30;;;;;7.90;96518.80;;;;108830;1269;41165;-61
2022/11/16 09:53:29;;;;;;;20.90;12.30;;;;;7.90;96517.60;;;;108758;1271;41848;-61
2022/11/16 09:56:24;;;;;;;19.60;10.40;;;;;7.90;96520.60;;;;108543;1263;41161;-60
2022/11/16 09:59:02;;;;;;;26.40;14.20;;;;;7.90;96517.80;;;;108584;1271;41803;-60
2022/11/16 10:01:46;;;;;;;28.00;15.80;;;;;7.90;96517.40;;;;108696;1271;41616;-60
2022/11/16 10:04:42;;;;;;;21.50;11.80;;;;;7.84;96512.60;;;;108813;1271;41151;-60
2022/11/16 10:07:16;;;;;;;22.40;12.00;;;;;7.86;96504.60;;;;108737;1270;41898;-60
2022/11/16 10:09:45;;;;;;;21.50;10.40;;;;;7.80;96498.80;;;;108768;1271;43121;-60
2022/11/16 10:12:27;;;;;;;17.40;9.90;;;;;7.90;96493.00;;;;108666;1271;41397;-60
2022/11/16 10:15:33;;;;;;;15.30;8.00;;;;;7.90;96487.80;;;;108502;1263;41150;-60
2022/11/16 10:18:08;;;;;;;16.00;8.20;;;;;8.00;96478.60;;;;108535;1271;41630;-60
2022/11/16 10:20:50;;;;;;;18.20;9.70;;;;;8.10;96477.40;;;;108653;1270;41967;-60
2022/11/16 10:23:43;;;;;;;20.90;9.60;;;;;8.10;96470.60;;;;108753;1259;41192;-62
2022/11/16 10:26:37;;;;;;;19.50;10.80;;;;;8.20;96466.00;;;;108710;1271;41953;-60
2022/11/16 10:29:16;;;;;;;18.10;10.50;;;;;8.40;96471.80;;;;108789;1271;41619;-61
2022/11/16 10:32:06;;;;;;;20.10;10.40;;;;;8.50;96474.80;;;;108602;1267;41663;-61
2022/11/16 10:34:54;;;;;;;18.60;9.80;;;;;8.50;96474.60;;;;108647;1270;41240;-61
2022/11/16 10:37:28;;;;;;;16.20;8.20;;;;;8.54;96465.20;;;;108936;1269;41175;-61
2022/11/16 10:39:57;;;;;;;17.80;9.80;;;;;8.60;96464.00;;;;108799;1271;41677;-61
2022/11/16 10:42:35;;;;;;;16.70;8.80;;;;;8.70;96461.00;;;;108914;1261;41171;-61
2022/11/16 10:45:12;;;;;;;16.90;8.60;;;;;8.72;96453.00;;;;108903;1267;41481;-61
2022/11/16 10:47:45;;;;;;;14.70;8.00;;;;;8.80;96444.40;;;;108720;1258;42461;-61
2022/11/16 10:50:59;;;;;;;19.20;9.90;;;;;8.90;96443.80;;;;108508;1271;41142;-61
2022/11/16 10:53:32;;;;;;;16.30;8.60;;;;;9.00;96441.40;;;;108416;1271;41623;-61
2022/11/16 10:56:16;;;;;;;16.00;7.70;;;;;9.10;96449.00;;;;108506;1271;41969;-61
2022/11/16 10:58:49;;;;;;;13.50;7.10;;;;;9.10;96450.20;;;;108509;1266;41616;-61
2022/11/16 11:01:37;;;;;;;16.40;7.60;;;;;9.20;96448.00;;;;108578;1270;41234;-61
2022/11/16 11:04:12;;;;;;;14.20;7.50;;;;;9.20;96445.80;;;;108663;1270;41144;-61
2022/11/16 11:06:42;;;;;;;18.00;7.50;;;;;9.30;96440.80;;;;108618;1270;41898;-61
2022/11/16 11:09:35;;;;;;;18.30;9.90;;;;;9.30;96441.00;;;;108748;1271;41176;-62
2022/11/16 11:15:25;;;;;;;19.10;9.90;;;;;9.20;96439.40;;;;108791;1269;41235;-61
2022/11/16 11:18:28;;;;;;;18.90;9.50;;;;;9.20;96435.80;;;;108780;1270;41147;-61
2022/11/16 11:21:14;;;;;;;21.50;11.50;;;;;9.10;96440.40;;;;108447;1271;41205;-61
2022/11/16 11:23:51;;;;;;;19.90;10.80;;;;;9.06;96432.00;;;;108580;1271;41231;-61
2022/11/16 11:26:26;;;;;;;16.30;8.90;;;;;9.00;96428.20;;;;108793;1268;41189;-61
2022/11/16 11:29:01;;;;;;;;;;;;;9.00;96424.20;;;;108613;1271;41930;-62
2022/11/16 11:31:41;;;;;;;13.30;7.60;;;;;9.10;96418.80;;;;108801;1267;41397;-62
2022/11/16 11:34:28;;;;;;;14.80;8.40;;;;;9.12;96408.40;;;;108789;1269;41910;-61
2022/11/16 11:37:01;;;;;;;19.80;10.10;;;;;9.20;96411.80;;;;108644;1271;41518;-62
2022/11/16 11:39:35;;;;;;;16.10;8.40;;;;;9.20;96416.00;;;;108791;1271;41485;-61
2022/11/16 11:42:11;;;;;;;15.60;7.70;;;;;9.30;96411.80;;;;108800;1271;41253;-61
2022/11/16 11:45:07;;;;;;;20.50;10.40;;;;;9.36;96409.40;;;;108806;1271;41160;-61
2022/11/16 11:47:43;;;;;;;16.90;9.70;;;;;9.50;96402.00;;;;108792;1271;41736;-61
2022/11/16 11:50:30;;;;;;;15.60;8.30;;;;;9.80;96401.60;;;;108812;1271;41238;-61
2022/11/16 11:53:05;;;;;;;13.40;7.50;;;;;9.98;96401.20;;;;108723;1270;41264;-61
2022/11/16 11:55:34;;;;;;;14.70;7.20;;;;;10.10;96390.20;;;;108764;1271;41163;-61
2022/11/16 11:58:04;;;;;;;13.60;7.00;;;;;10.26;96387.60;;;;108784;1271;42541;-62
2022/11/16 12:00:51;;;;;;;16.40;8.00;;;;;10.48;96375.60;;;;108794;1270;41147;-62
2022/11/16 12:03:58;;;;;;;16.10;8.40;;;;;11.72;96373.20;;;;108771;1266;41165;-62
2022/11/16 12:06:29;;;;;;;14.90;8.10;;;;;13.10;96374.60;;;;108649;1270;41170;-61
2022/11/16 12:08:58;;;;;;;;;;;;;13.46;96377.20;;;;108632;1269;41166;-61
2022/11/16 12:11:32;;;;;;;15.10;7.50;;;;;13.40;96380.40;;;;108720;1270;42581;-61
2022/11/16 12:14:07;;;;;;;16.00;8.00;;;;;13.20;96383.60;;;;108658;1270;41152;-61
2022/11/16 12:16:42;;;;;;;17.20;8.60;;;;;12.90;96371.80;;;;108536;1270;42022;-61
2022/11/16 12:19:36;;;;;;;13.80;7.10;;;;;12.58;96374.40;;;;108675;1271;41164;-61
2022/11/16 12:22:26;;;;;;;13.90;7.10;;;;;12.28;96378.00;;;;108560;1271;41695;-61
2022/11/16 12:25:01;;;;;;;16.30;8.00;;;;;12.00;96375.00;;;;108591;1271;41317;-61
2022/11/16 12:27:54;;;;;;;14.20;8.00;;;;;11.80;96378.20;;;;108753;1269;41137;-61
2022/11/16 12:30:23;;;;;;;13.60;6.90;;;;;11.58;96377.60;;;;108788;1271;42081;-61
2022/11/16 12:32:57;;;;;;;14.60;7.00;;;;;11.40;96372.00;;;;108656;1271;41540;-61
2022/11/16 12:36:11;;;;;;;16.60;9.10;;;;;11.30;96372.40;;;;108839;1271;41711;-61
2022/11/16 12:38:50;;;;;;;17.80;9.90;;;;;11.02;96374.20;;;;108752;1271;41932;-63
2022/11/16 12:41:22;;;;;;;16.00;9.00;;;;;10.80;96374.60;;;;108702;1271;41147;-63
2022/11/16 12:44:02;;;;;;;16.30;8.60;;;;;10.70;96372.40;;;;108903;1268;41739;-61
2022/11/16 12:46:34;;;;;;;17.00;8.30;;;;;10.62;96368.80;;;;108591;1271;41820;-61
2022/11/16 12:49:38;;;;;;;13.80;7.30;;;;;10.60;96360.80;;;;108544;1269;41276;-61
2022/11/16 12:52:37;;;;;;;16.20;8.50;;;;;10.60;96367.60;;;;108623;1267;41457;-61
2022/11/16 12:55:15;;;;;;;15.90;8.30;;;;;10.52;96358.60;;;;108812;1268;41139;-61
2022/11/16 12:58:05;;;;;;;16.80;9.50;;;;;10.50;96358.00;;;;108712;1270;41179;-61
2022/11/16 13:00:52;;;;;;;16.20;9.00;;;;;10.42;96355.80;;;;108732;1266;41152;-61
2022/11/16 13:03:48;;;;;;;15.70;8.90;;;;;10.40;96348.20;;;;108768;1265;41397;-61
2022/11/16 13:06:26;;;;;;;21.20;10.50;;;;;10.30;96350.60;;;;108588;1271;42574;-60
2022/11/16 13:09:11;;;;;;;17.70;8.50;;;;;10.22;96365.60;;;;108696;1261;41897;-61
2022/11/16 13:11:47;;;;;;;16.40;8.10;;;;;10.20;96358.80;;;;108741;1266;41163;-63
2022/11/16 13:14:23;;;;;;;15.70;8.20;;;;;10.20;96355.60;;;;108814;1271;41810;-60
2022/11/16 13:16:53;;;;;;;16.60;8.30;;;;;10.20;96360.00;;;;108862;1266;41665;-61
2022/11/16 13:19:22;;;;;;;14.90;7.90;;;;;10.20;96356.20;;;;108678;1271;41480;-61
2022/11/16 13:21:58;;;;;;;17.30;8.90;;;;;10.20;96354.20;;;;108826;1270;41133;-61
2022/11/16 13:24:45;;;;;;;18.60;8.50;;;;;10.10;96360.20;;;;108780;1271;41630;-62
2022/11/16 13:27:32;;;;;;;16.30;7.50;;;;;10.10;96360.40;;;;108767;1269;41609;-62
2022/11/16 13:30:20;;;;;;;17.50;8.40;;;;;10.10;96353.80;;;;108820;1265;41141;-62